createdAt,value
2022-08-17T00:02:26.944Z,99856.69
2022-08-17T00:04:55.140Z,99852.00
2022-08-17T00:07:22.719Z,99850.44
2022-08-17T00:09:50.204Z,99850.69
2022-08-17T00:12:43.534Z,99847.56
2022-08-17T00:15:05.920Z,99845.84
2022-08-17T00:17:36.422Z,99847.56
2022-08-17T00:20:04.146Z,99851.84
2022-08-17T00:22:36.141Z,99844.00
2022-08-17T00:25:05.368Z,99849.59
2022-08-17T00:27:33.636Z,99853.41
2022-08-17T00:30:00.851Z,99854.84
2022-08-17T00:33:15.709Z,99852.41
2022-08-17T00:35:17.574Z,99851.09
2022-08-17T00:37:44.796Z,99851.38
2022-08-17T00:40:13.395Z,99847.13
2022-08-17T00:42:41.041Z,99841.00
2022-08-17T00:45:09.574Z,99844.69
2022-08-17T00:47:36.945Z,99842.00
2022-08-17T00:50:05.376Z,99846.41
2022-08-17T00:52:35.459Z,99839.28
2022-08-17T00:55:03.154Z,99849.41
2022-08-17T00:57:32.887Z,99846.72
2022-08-17T01:00:05.858Z,99848.41
2022-08-17T01:02:42.252Z,99852.53
2022-08-17T01:05:12.459Z,99855.66
2022-08-17T01:07:40.105Z,99855.94
2022-08-17T01:10:58.159Z,99852.25
2022-08-17T01:12:56.846Z,99854.66
2022-08-17T01:15:24.252Z,99854.81
2022-08-17T01:17:51.561Z,99843.84
2022-08-17T01:20:19.090Z,99838.44
2022-08-17T01:22:46.384Z,99853.09
2022-08-17T01:25:14.283Z,99863.94
2022-08-17T01:27:42.779Z,99855.25
2022-08-17T01:30:56.614Z,99856.50
2022-08-17T01:32:59.260Z,99852.94
2022-08-17T01:35:26.537Z,99849.94
2022-08-17T01:37:53.834Z,99853.22
2022-08-17T01:40:33.689Z,99845.81
2022-08-17T01:43:08.438Z,99849.09
2022-08-17T01:45:43.883Z,99847.50
2022-08-17T01:48:11.755Z,99850.91
2022-08-17T01:50:40.579Z,99856.00
2022-08-17T01:53:10.415Z,99853.72
2022-08-17T01:55:57.779Z,99861.25
2022-08-17T01:58:25.205Z,99851.81
2022-08-17T02:01:00.532Z,99861.88
2022-08-17T02:03:29.528Z,99870.28
2022-08-17T02:05:57.124Z,99869.28
2022-08-17T02:08:38.644Z,99874.41
2022-08-17T02:11:11.508Z,99869.56
2022-08-17T02:13:39.598Z,99870.97
2022-08-17T02:16:06.854Z,99866.69
2022-08-17T02:18:34.115Z,99877.63
2022-08-17T02:21:01.433Z,99876.78
2022-08-17T02:23:30.289Z,99877.75
2022-08-17T02:25:59.238Z,99868.09
2022-08-17T02:28:28.370Z,99863.53
2022-08-17T02:31:02.294Z,99854.56
2022-08-17T02:33:42.119Z,99860.84
2022-08-17T02:36:11.926Z,99862.53
2022-08-17T02:38:40.227Z,99859.13
2022-08-17T02:41:07.497Z,99862.97
2022-08-17T02:43:34.958Z,99861.38
2022-08-17T02:46:02.283Z,99865.34
2022-08-17T02:48:31.506Z,99868.91
2022-08-17T02:50:59.912Z,99873.72
2022-08-17T02:53:27.842Z,99866.13
2022-08-17T02:56:03.149Z,99870.81
2022-08-17T02:58:34.958Z,99870.81
2022-08-17T03:01:07.027Z,99869.38
2022-08-17T03:03:35.132Z,99874.94
2022-08-17T03:06:02.793Z,99880.47
2022-08-17T03:08:30.042Z,99882.56
2022-08-17T03:10:57.341Z,99875.59
2022-08-17T03:13:24.732Z,99876.84
2022-08-17T03:15:52.089Z,99878.94
2022-08-17T03:18:24.762Z,99885.47
2022-08-17T03:20:53.609Z,99884.88
2022-08-17T03:23:24.116Z,99888.56
2022-08-17T03:25:53.119Z,99889.44
2022-08-17T03:28:21.466Z,99896.56
2022-08-17T03:30:49.262Z,99894.84
2022-08-17T03:33:17.059Z,99896.81
2022-08-17T03:35:44.379Z,99900.50
2022-08-17T03:38:12.626Z,99901.34
2022-08-17T03:40:57.675Z,99899.53
2022-08-17T03:43:30.822Z,99898.94
2022-08-17T03:46:34.190Z,99899.63
2022-08-17T03:49:23.286Z,99899.91
2022-08-17T03:52:09.319Z,99904.00
2022-08-17T03:54:55.132Z,99900.16
2022-08-17T03:57:22.485Z,99904.81
2022-08-17T03:59:50.368Z,99897.84
2022-08-17T04:02:19.906Z,99905.94
2022-08-17T04:04:50.887Z,99915.78
2022-08-17T04:07:19.562Z,99912.81
2022-08-17T04:09:46.928Z,99921.63
2022-08-17T04:12:18.565Z,99924.22
2022-08-17T04:14:53.656Z,99932.31
2022-08-17T04:17:23.146Z,99925.19
2022-08-17T04:19:50.508Z,99927.78
2022-08-17T04:22:32.536Z,99933.75
2022-08-17T04:25:03.714Z,99935.22
2022-08-17T04:27:31.088Z,99941.59
2022-08-17T04:29:58.724Z,99942.84
2022-08-17T04:33:10.825Z,99947.25
2022-08-17T04:35:17.479Z,99946.13
2022-08-17T04:37:45.192Z,99940.47
2022-08-17T04:40:31.238Z,99948.84
2022-08-17T04:43:02.804Z,99952.25
2022-08-17T04:45:32.045Z,99955.44
2022-08-17T04:48:00.347Z,99958.47
2022-08-17T04:50:27.711Z,99964.19
2022-08-17T04:52:55.401Z,99967.38
2022-08-17T04:55:23.527Z,99959.59
2022-08-17T04:57:50.811Z,99964.31
2022-08-17T05:00:18.171Z,99959.38
2022-08-17T05:02:50.109Z,99967.22
2022-08-17T05:05:19.163Z,99971.38
2022-08-17T05:07:48.432Z,99970.13
2022-08-17T05:10:15.702Z,99973.25
2022-08-17T05:12:43.043Z,99965.75
2022-08-17T05:15:11.303Z,99968.53
2022-08-17T05:17:38.559Z,99973.16
2022-08-17T05:20:06.214Z,99978.59
2022-08-17T05:22:33.489Z,99977.63
2022-08-17T05:25:01.826Z,99975.53
2022-08-17T05:27:35.075Z,99987.09
2022-08-17T05:30:02.887Z,99985.44
2022-08-17T05:32:38.121Z,99987.28
2022-08-17T05:35:07.614Z,99989.06
2022-08-17T05:37:34.939Z,99987.78
2022-08-17T05:40:02.315Z,99982.09
2022-08-17T05:42:29.678Z,99987.38
2022-08-17T05:44:57.874Z,99989.53
2022-08-17T05:47:26.327Z,99991.09
2022-08-17T05:49:54.050Z,99981.56
2022-08-17T05:52:40.572Z,99977.53
2022-08-17T05:55:17.805Z,99979.84
2022-08-17T05:58:03.687Z,99974.41
2022-08-17T06:00:33.995Z,99978.66
2022-08-17T06:03:20.027Z,99985.47
2022-08-17T06:05:47.284Z,99981.28
2022-08-17T06:08:23.531Z,99976.53
2022-08-17T06:10:57.019Z,99979.22
2022-08-17T06:13:27.539Z,99977.88
2022-08-17T06:15:55.351Z,99980.25
2022-08-17T06:18:25.943Z,99978.50
2022-08-17T06:21:00.441Z,99982.56
2022-08-17T06:23:34.248Z,99981.63
2022-08-17T06:26:21.794Z,99978.53
2022-08-17T06:28:54.847Z,99975.44
2022-08-17T06:31:28.071Z,99973.91
2022-08-17T06:33:59.816Z,99979.78
2022-08-17T06:36:50.556Z,99978.22
2022-08-17T06:39:17.788Z,99979.66
2022-08-17T06:41:53.923Z,99983.56
2022-08-17T06:44:43.198Z,99989.38
2022-08-17T06:47:28.201Z,99988.72
2022-08-17T06:49:59.291Z,99977.22
2022-08-17T06:52:46.144Z,99973.53
2022-08-17T06:55:20.232Z,99979.38
2022-08-17T06:57:53.934Z,99976.00
2022-08-17T07:00:26.775Z,99974.84
2022-08-17T07:03:06.699Z,99972.75
2022-08-17T07:05:38.821Z,99982.16
2022-08-17T07:08:24.376Z,99974.19
2022-08-17T07:10:56.708Z,99978.13
2022-08-17T07:13:31.311Z,99974.56
2022-08-17T07:16:04.656Z,99974.25
2022-08-17T07:18:33.261Z,99982.16
2022-08-17T07:21:05.213Z,99969.56
2022-08-17T07:23:39.457Z,99969.38
2022-08-17T07:26:07.775Z,99972.09
2022-08-17T07:28:35.304Z,99968.34
2022-08-17T07:31:04.646Z,99965.75
2022-08-17T07:33:36.868Z,99969.69
2022-08-17T07:36:04.348Z,99965.97
2022-08-17T07:38:33.388Z,99961.81
2022-08-17T07:41:04.450Z,99971.53
2022-08-17T07:43:37.989Z,99969.13
2022-08-17T07:46:30.156Z,99970.81
2022-08-17T07:49:17.670Z,99959.19
2022-08-17T07:51:47.783Z,99954.38
2022-08-17T07:54:15.192Z,99958.56
2022-08-17T07:57:00.335Z,99960.56
2022-08-17T07:59:35.174Z,99957.44
2022-08-17T08:02:13.378Z,99954.63
2022-08-17T08:04:59.859Z,99949.00
2022-08-17T08:07:48.984Z,99959.03
2022-08-17T08:10:27.717Z,99959.69
2022-08-17T08:13:06.313Z,99958.72
2022-08-17T08:15:36.099Z,99951.75
2022-08-17T08:18:04.986Z,99950.59
2022-08-17T08:20:51.884Z,99953.56
2022-08-17T08:23:34.922Z,99955.88
2022-08-17T08:26:20.919Z,99950.59
2022-08-17T08:28:57.144Z,99953.56
2022-08-17T08:31:30.283Z,99947.97
2022-08-17T08:34:05.048Z,99941.72
2022-08-17T08:37:17.592Z,99949.00
2022-08-17T08:39:59.035Z,99950.00
2022-08-17T08:42:34.033Z,99942.69
2022-08-17T08:45:21.911Z,99944.91
2022-08-17T08:47:56.103Z,99943.66
2022-08-17T08:50:38.699Z,99942.25
2022-08-17T08:53:15.309Z,99944.13
2022-08-17T08:56:01.475Z,99938.56
2022-08-17T08:58:43.842Z,99939.03
2022-08-17T09:01:38.099Z,99935.22
2022-08-17T09:04:24.611Z,99940.91
2022-08-17T09:06:57.979Z,99936.38
2022-08-17T09:09:43.589Z,99937.09
2022-08-17T09:12:21.254Z,99937.47
2022-08-17T09:14:59.529Z,99930.34
2022-08-17T09:19:02.914Z,99931.97
2022-08-17T09:21:00.519Z,99933.06
2022-08-17T09:23:33.717Z,99927.41
2022-08-17T09:26:10.804Z,99922.69
2022-08-17T09:28:39.174Z,99923.22
2022-08-17T09:31:11.207Z,99926.47
2022-08-17T09:33:43.246Z,99920.25
2022-08-17T09:36:21.752Z,99922.44
2022-08-17T09:38:56.962Z,99919.56
2022-08-17T09:41:28.290Z,99926.09
2022-08-17T09:44:23.151Z,99918.31
2022-08-17T09:46:53.526Z,99919.56
2022-08-17T09:49:25.133Z,99914.56
2022-08-17T09:51:56.678Z,99917.31
2022-08-17T09:54:39.044Z,99914.00
2022-08-17T09:57:30.273Z,99913.22
2022-08-17T09:59:57.901Z,99907.31
2022-08-17T10:02:42.744Z,99906.91
2022-08-17T10:05:18.003Z,99907.66
2022-08-17T10:08:00.983Z,99903.72
2022-08-17T10:10:32.664Z,99902.09
2022-08-17T10:13:19.651Z,99901.63
2022-08-17T10:16:09.875Z,99905.25
2022-08-17T10:18:46.003Z,99907.34
2022-08-17T10:21:37.385Z,99897.84
2022-08-17T10:24:37.724Z,99895.59
2022-08-17T10:27:09.047Z,99891.22
2022-08-17T10:29:49.948Z,99900.53
2022-08-17T10:32:26.555Z,99895.66
2022-08-17T10:35:10.709Z,99888.06
2022-08-17T10:37:40.737Z,99891.75
2022-08-17T10:40:08.077Z,99896.00
2022-08-17T10:42:47.093Z,99894.31
2022-08-17T10:45:19.528Z,99888.84
2022-08-17T10:48:04.781Z,99878.66
2022-08-17T10:51:02.591Z,99871.69
2022-08-17T10:53:32.872Z,99878.47
2022-08-17T10:56:12.117Z,99868.56
2022-08-17T10:58:47.003Z,99871.53
2022-08-17T11:01:14.446Z,99878.31
2022-08-17T11:03:53.417Z,99875.75
2022-08-17T11:06:29.828Z,99865.19
2022-08-17T11:09:22.974Z,99866.22
2022-08-17T11:12:10.475Z,99869.81
2022-08-17T11:14:57.470Z,99866.44
2022-08-17T11:17:24.831Z,99872.38
2022-08-17T11:20:10.235Z,99865.81
2022-08-17T11:22:37.535Z,99865.81
2022-08-17T11:25:13.506Z,99858.19
2022-08-17T11:27:42.410Z,99857.97
2022-08-17T11:30:14.785Z,99860.09
2022-08-17T11:32:48.620Z,99851.41
2022-08-17T11:35:20.333Z,99855.44
2022-08-17T11:38:08.684Z,99841.44
2022-08-17T11:40:59.423Z,99856.25
2022-08-17T11:43:29.591Z,99843.78
2022-08-17T11:46:52.681Z,99840.81
2022-08-17T11:49:58.486Z,99849.88
2022-08-17T11:52:36.499Z,99850.91
2022-08-17T11:55:33.635Z,99852.22
2022-08-17T11:58:00.979Z,99845.22
2022-08-17T12:00:57.245Z,99846.50
2022-08-17T12:03:31.687Z,99837.81
2022-08-17T12:06:08.283Z,99843.97
2022-08-17T12:08:41.771Z,99833.97
2022-08-17T12:11:16.742Z,99824.81
2022-08-17T12:14:04.809Z,99817.56
2022-08-17T12:16:33.046Z,99817.94
2022-08-17T12:19:02.485Z,99808.97
2022-08-17T12:21:57.833Z,99809.56
2022-08-17T12:24:34.231Z,99805.38
2022-08-17T12:27:02.849Z,99802.81
2022-08-17T12:29:35.539Z,99796.84
2022-08-17T12:32:07.176Z,99798.31
2022-08-17T12:34:41.520Z,99803.44
2022-08-17T12:37:20.684Z,99800.44
2022-08-17T12:39:51.315Z,99792.00
2022-08-17T12:42:23.575Z,99789.22
2022-08-17T12:44:50.946Z,99794.47
2022-08-17T12:47:22.228Z,99797.81
2022-08-17T12:49:52.262Z,99792.69
2022-08-17T12:52:19.519Z,99798.88
2022-08-17T12:54:52.557Z,99790.03
2022-08-17T12:57:34.822Z,99788.75
2022-08-17T13:00:17.664Z,99774.63
2022-08-17T13:02:47.723Z,99765.56
2022-08-17T13:05:25.614Z,99780.88
2022-08-17T13:07:54.509Z,99781.84
2022-08-17T13:10:21.772Z,99776.69
2022-08-17T13:12:51.017Z,99778.00
2022-08-17T13:15:23.293Z,99780.13
2022-08-17T13:17:58.411Z,99775.84
2022-08-17T13:20:25.855Z,99772.63
2022-08-17T13:22:54.855Z,99767.25
2022-08-17T13:25:22.211Z,99773.16
2022-08-17T13:27:50.785Z,99763.06
2022-08-17T13:30:23.828Z,99769.25
2022-08-17T13:32:51.167Z,99761.59
2022-08-17T13:35:32.838Z,99767.56
2022-08-17T13:38:09.861Z,99766.94
2022-08-17T13:40:57.351Z,99767.34
2022-08-17T13:43:37.921Z,99764.53
2022-08-17T13:46:26.558Z,99774.91
2022-08-17T13:49:00.137Z,99767.97
2022-08-17T13:51:29.955Z,99762.16
2022-08-17T13:53:59.276Z,99765.72
2022-08-17T13:56:33.543Z,99761.66
2022-08-17T13:59:15.086Z,99753.78
2022-08-17T14:01:43.980Z,99766.31
2022-08-17T14:04:19.028Z,99767.41
2022-08-17T14:06:53.842Z,99766.19
2022-08-17T14:09:26.347Z,99760.88
2022-08-17T14:11:54.789Z,99758.50
2022-08-17T14:14:23.294Z,99749.16
2022-08-17T14:16:51.566Z,99740.25
2022-08-17T14:19:19.566Z,99739.19
2022-08-17T14:21:46.985Z,99751.91
2022-08-17T14:24:22.315Z,99749.22
2022-08-17T14:26:50.002Z,99747.19
2022-08-17T14:29:17.357Z,99738.44
2022-08-17T14:31:48.464Z,99738.91
2022-08-17T14:34:20.999Z,99737.00
2022-08-17T14:36:48.708Z,99736.38
2022-08-17T14:39:16.946Z,99733.66
2022-08-17T14:41:44.306Z,99731.34
2022-08-17T14:44:12.661Z,99734.97
2022-08-17T14:46:43.739Z,99738.78
2022-08-17T14:49:12.271Z,99732.00
2022-08-17T14:51:44.130Z,99730.28
2022-08-17T14:54:33.303Z,99732.19
2022-08-17T14:57:23.322Z,99725.63
2022-08-17T14:59:52.294Z,99725.16
2022-08-17T15:02:29.388Z,99729.84
2022-08-17T15:04:58.949Z,99719.66
2022-08-17T15:07:26.219Z,99721.75
2022-08-17T15:10:00.822Z,99721.03
2022-08-17T15:12:32.740Z,99721.22
2022-08-17T15:15:02.131Z,99714.00
2022-08-17T15:17:43.799Z,99725.72
2022-08-17T15:20:15.199Z,99729.16
2022-08-17T17:13:03.756Z,99627.06
2022-08-17T17:15:55.085Z,99623.69
2022-08-17T17:18:33.178Z,99630.25
2022-08-17T17:21:02.330Z,99633.19
2022-08-17T17:23:42.986Z,99631.28
2022-08-17T17:26:22.887Z,99637.63
2022-08-17T17:29:05.022Z,99635.31
2022-08-17T17:31:40.554Z,99630.84
2022-08-17T17:34:16.002Z,99634.88
2022-08-17T17:36:48.755Z,99636.16
2022-08-17T17:39:20.762Z,99625.78
2022-08-17T17:41:52.782Z,99633.59
2022-08-17T17:44:28.767Z,99637.81
2022-08-17T17:47:01.125Z,99638.25
2022-08-17T17:49:34.465Z,99637.19
2022-08-17T17:52:14.221Z,99644.31
2022-08-17T17:55:00.297Z,99643.25
2022-08-17T17:57:40.571Z,99644.50
2022-08-17T18:00:15.998Z,99651.03
2022-08-17T18:02:56.605Z,99652.91
2022-08-17T18:05:48.529Z,99660.09
2022-08-17T18:08:34.705Z,99661.97
2022-08-17T18:11:15.260Z,99667.19
2022-08-17T18:14:04.615Z,99664.66
2022-08-17T18:16:35.060Z,99672.16
2022-08-17T18:19:03.279Z,99678.66
2022-08-17T18:21:38.978Z,99679.03
2022-08-17T18:24:10.554Z,99677.91
2022-08-17T18:26:46.777Z,99692.81
2022-08-17T18:29:38.286Z,99684.47
2022-08-17T18:32:26.736Z,99688.41
2022-08-17T18:34:57.266Z,99701.41
2022-08-17T18:37:42.768Z,99697.97
2022-08-17T18:40:34.185Z,99692.16
2022-08-17T18:43:25.525Z,99702.22
2022-08-17T18:45:55.854Z,99704.25
2022-08-17T18:48:32.935Z,99693.59
2022-08-17T18:51:21.300Z,99704.50
2022-08-17T18:54:20.385Z,99711.09
2022-08-17T18:56:56.737Z,99700.28
2022-08-17T18:59:29.751Z,99708.06
2022-08-17T19:02:32.468Z,99717.22
2022-08-17T19:05:13.595Z,99718.00
2022-08-17T19:07:44.286Z,99718.09
2022-08-17T19:10:22.335Z,99727.22
2022-08-17T19:13:00.737Z,99720.63
2022-08-17T19:15:34.232Z,99736.59
2022-08-17T19:18:09.926Z,99734.78
2022-08-17T19:20:48.793Z,99730.09
2022-08-17T19:23:24.976Z,99730.00
2022-08-17T19:25:55.577Z,99730.75
2022-08-17T19:28:29.680Z,99733.41
2022-08-17T19:30:59.652Z,99738.94
2022-08-17T19:33:28.374Z,99736.28
2022-08-17T19:36:07.296Z,99740.13
2022-08-17T19:38:43.493Z,99745.38
2022-08-17T19:41:20.523Z,99749.13
2022-08-17T19:44:27.091Z,99739.34
2022-08-17T19:47:06.077Z,99746.44
2022-08-17T19:49:46.684Z,99746.84
2022-08-17T19:52:37.767Z,99751.88
2022-08-17T19:55:19.827Z,99744.28
2022-08-17T19:57:59.018Z,99751.84
2022-08-17T20:00:27.714Z,99746.78
2022-08-17T20:03:05.905Z,99740.28
2022-08-17T20:06:08.559Z,99744.75
2022-08-17T20:08:32.727Z,99748.53
2022-08-17T20:11:08.867Z,99747.34
2022-08-17T20:13:42.169Z,99743.28
2022-08-17T20:16:12.261Z,99743.47
2022-08-17T20:18:50.938Z,99751.31
2022-08-17T20:21:23.116Z,99751.66
2022-08-17T20:24:01.163Z,99753.72
2022-08-17T20:26:58.221Z,99759.19
2022-08-17T20:29:37.601Z,99767.22
2022-08-17T20:32:23.937Z,99754.47
2022-08-17T20:35:04.904Z,99765.72
2022-08-17T20:37:35.764Z,99758.25
2022-08-17T20:40:23.468Z,99768.50
2022-08-17T20:42:51.637Z,99770.47
2022-08-17T20:46:02.457Z,99783.59
2022-08-17T20:48:38.739Z,99777.66
2022-08-17T20:51:31.533Z,99778.34
2022-08-17T20:54:17.183Z,99781.41
2022-08-17T20:56:57.364Z,99780.91
2022-08-17T20:59:59.833Z,99765.75
2022-08-17T21:02:30.157Z,99768.13
2022-08-17T21:05:22.098Z,99772.41
2022-08-17T21:07:57.996Z,99765.78
2022-08-17T21:10:37.341Z,99775.31
2022-08-17T21:13:35.152Z,99766.13
2022-08-17T21:16:11.820Z,99772.75
2022-08-17T21:18:46.798Z,99779.72
2022-08-17T21:21:25.226Z,99774.44
2022-08-17T21:24:07.623Z,99770.34
2022-08-17T21:26:51.107Z,99777.97
2022-08-17T21:29:32.398Z,99772.38
2022-08-17T21:32:24.422Z,99777.97
2022-08-17T21:35:28.600Z,99777.44
2022-08-17T21:38:04.406Z,99783.75
2022-08-17T21:40:34.610Z,99792.78
2022-08-17T21:43:18.196Z,99790.91
2022-08-17T21:45:57.810Z,99798.88
2022-08-17T21:48:27.434Z,99790.56
2022-08-17T21:51:03.637Z,99781.72
2022-08-17T21:53:40.529Z,99790.03
2022-08-17T21:56:11.041Z,99793.09
2022-08-17T21:58:44.474Z,99791.59
2022-08-17T22:01:25.394Z,99794.63
2022-08-17T22:04:00.825Z,99802.63
2022-08-17T22:06:31.386Z,99796.66
2022-08-17T22:09:02.345Z,99804.13
2022-08-17T22:11:31.374Z,99792.03
2022-08-17T22:14:00.719Z,99787.09
2022-08-17T22:16:35.806Z,99789.28
2022-08-17T22:19:06.614Z,99787.75
2022-08-17T22:21:34.804Z,99797.25
2022-08-17T22:24:06.181Z,99790.63
2022-08-17T22:27:01.341Z,99801.81
2022-08-17T22:29:45.962Z,99802.97
2022-08-17T22:32:34.541Z,99791.34
2022-08-17T22:35:32.687Z,99789.16
2022-08-17T22:38:29.610Z,99786.03
2022-08-17T22:41:16.225Z,99794.69
2022-08-17T22:43:44.980Z,99780.75
2022-08-17T22:46:14.949Z,99793.13
2022-08-17T22:48:51.701Z,99788.84
2022-08-17T22:51:23.663Z,99790.03
2022-08-17T22:54:11.604Z,99793.75
2022-08-17T22:57:05.828Z,99785.06
2022-08-17T22:59:42.205Z,99792.53
2022-08-17T23:02:13.723Z,99791.47
2022-08-17T23:04:47.746Z,99783.97
2022-08-17T23:07:17.497Z,99788.34
2022-08-17T23:09:46.182Z,99793.09
2022-08-17T23:12:19.644Z,99785.94
2022-08-17T23:14:51.364Z,99787.94
2022-08-17T23:17:19.629Z,99785.22
2022-08-17T23:19:49.219Z,99785.41
2022-08-17T23:22:17.395Z,99779.13
2022-08-17T23:24:49.005Z,99772.16
2022-08-17T23:27:18.216Z,99776.72
2022-08-17T23:29:47.138Z,99780.72
2022-08-17T23:32:18.427Z,99786.50
2022-08-17T23:34:49.529Z,99784.25
2022-08-17T23:37:19.139Z,99787.13
2022-08-17T23:39:47.833Z,99785.41
2022-08-17T23:42:21.748Z,99791.84
2022-08-17T23:44:50.259Z,99785.75
2022-08-17T23:47:18.603Z,99800.00
2022-08-17T23:49:48.192Z,99802.72
2022-08-17T23:52:22.772Z,99798.31
2022-08-17T23:54:51.314Z,99788.59
2022-08-17T23:57:33.903Z,99802.34
